sensor_id;sensor_type;location;lat;lon;timestamp;P1;durP1;ratioP1;P2;durP2;ratioP2
51792;SDS011;37850;53.178;6.376;2023-02-28T00:00:29;7.72;;;2.50;;
51792;SDS011;37850;53.178;6.376;2023-02-28T00:02:55;8.63;;;2.72;;
51792;SDS011;37850;53.178;6.376;2023-02-28T00:05:21;10.15;;;2.60;;
51792;SDS011;37850;53.178;6.376;2023-02-28T00:07:48;11.43;;;2.15;;
51792;SDS011;37850;53.178;6.376;2023-02-28T00:10:16;10.32;;;2.42;;
51792;SDS011;37850;53.178;6.376;2023-02-28T00:12:48;9.95;;;2.60;;
51792;SDS011;37850;53.178;6.376;2023-02-28T00:15:17;10.55;;;2.35;;
51792;SDS011;37850;53.178;6.376;2023-02-28T00:17:43;8.90;;;2.80;;
51792;SDS011;37850;53.178;6.376;2023-02-28T00:20:10;8.10;;;2.25;;
51792;SDS011;37850;53.178;6.376;2023-02-28T00:22:42;11.68;;;2.70;;
51792;SDS011;37850;53.178;6.376;2023-02-28T00:25:10;8.50;;;2.90;;
51792;SDS011;37850;53.178;6.376;2023-02-28T00:27:37;9.65;;;2.75;;
51792;SDS011;37850;53.178;6.376;2023-02-28T00:30:04;11.38;;;3.05;;
51792;SDS011;37850;53.178;6.376;2023-02-28T00:32:32;12.52;;;2.40;;
51792;SDS011;37850;53.178;6.376;2023-02-28T00:34:59;10.32;;;2.70;;
51792;SDS011;37850;53.178;6.376;2023-02-28T00:37:25;9.30;;;2.58;;
51792;SDS011;37850;53.178;6.376;2023-02-28T00:39:51;13.20;;;2.88;;
51792;SDS011;37850;53.178;6.376;2023-02-28T00:42:17;11.50;;;2.70;;
51792;SDS011;37850;53.178;6.376;2023-02-28T00:44:42;8.30;;;2.50;;
51792;SDS011;37850;53.178;6.376;2023-02-28T00:47:08;10.18;;;2.42;;
51792;SDS011;37850;53.178;6.376;2023-02-28T00:49:34;9.15;;;3.10;;
51792;SDS011;37850;53.178;6.376;2023-02-28T00:51:59;8.40;;;2.50;;
51792;SDS011;37850;53.178;6.376;2023-02-28T00:54:25;6.13;;;2.58;;
51792;SDS011;37850;53.178;6.376;2023-02-28T00:56:51;12.15;;;2.92;;
51792;SDS011;37850;53.178;6.376;2023-02-28T00:59:17;10.88;;;2.90;;
51792;SDS011;37850;53.178;6.376;2023-02-28T01:01:43;9.90;;;2.72;;
51792;SDS011;37850;53.178;6.376;2023-02-28T01:04:10;10.15;;;2.90;;
51792;SDS011;37850;53.178;6.376;2023-02-28T01:06:36;10.15;;;2.60;;
51792;SDS011;37850;53.178;6.376;2023-02-28T01:09:02;10.63;;;3.15;;
51792;SDS011;37850;53.178;6.376;2023-02-28T01:11:29;11.27;;;2.50;;
51792;SDS011;37850;53.178;6.376;2023-02-28T01:13:55;8.57;;;2.35;;
51792;SDS011;37850;53.178;6.376;2023-02-28T01:16:21;8.48;;;2.80;;
51792;SDS011;37850;53.178;6.376;2023-02-28T01:18:47;9.25;;;2.35;;
51792;SDS011;37850;53.178;6.376;2023-02-28T01:21:14;8.20;;;2.40;;
51792;SDS011;37850;53.178;6.376;2023-02-28T01:23:42;9.65;;;2.15;;
51792;SDS011;37850;53.178;6.376;2023-02-28T01:26:13;9.05;;;2.17;;
51792;SDS011;37850;53.178;6.376;2023-02-28T01:28:41;8.32;;;2.47;;
51792;SDS011;37850;53.178;6.376;2023-02-28T01:31:07;9.45;;;1.95;;
51792;SDS011;37850;53.178;6.376;2023-02-28T01:33:34;11.40;;;2.38;;
51792;SDS011;37850;53.178;6.376;2023-02-28T01:36:01;9.13;;;2.15;;
51792;SDS011;37850;53.178;6.376;2023-02-28T01:38:37;12.50;;;2.25;;
51792;SDS011;37850;53.178;6.376;2023-02-28T01:41:03;7.00;;;2.28;;
51792;SDS011;37850;53.178;6.376;2023-02-28T01:43:31;7.50;;;2.30;;
51792;SDS011;37850;53.178;6.376;2023-02-28T01:46:11;10.30;;;2.63;;
51792;SDS011;37850;53.178;6.376;2023-02-28T01:48:40;9.70;;;2.40;;
51792;SDS011;37850;53.178;6.376;2023-02-28T01:51:13;8.77;;;2.13;;
51792;SDS011;37850;53.178;6.376;2023-02-28T01:53:44;9.27;;;2.25;;
51792;SDS011;37850;53.178;6.376;2023-02-28T01:56:14;10.20;;;2.20;;
51792;SDS011;37850;53.178;6.376;2023-02-28T02:01:16;8.85;;;1.83;;
51792;SDS011;37850;53.178;6.376;2023-02-28T02:03:59;8.38;;;2.30;;
51792;SDS011;37850;53.178;6.376;2023-02-28T02:06:43;7.53;;;2.40;;
51792;SDS011;37850;53.178;6.376;2023-02-28T02:09:11;8.25;;;2.30;;
51792;SDS011;37850;53.178;6.376;2023-02-28T02:11:37;7.75;;;2.33;;
51792;SDS011;37850;53.178;6.376;2023-02-28T02:14:11;4.63;;;1.70;;
51792;SDS011;37850;53.178;6.376;2023-02-28T02:25:25;12.27;;;2.60;;
51792;SDS011;37850;53.178;6.376;2023-02-28T02:31:02;10.15;;;2.15;;
51792;SDS011;37850;53.178;6.376;2023-02-28T02:36:24;6.97;;;1.90;;
51792;SDS011;37850;53.178;6.376;2023-02-28T02:42:16;9.30;;;2.22;;
51792;SDS011;37850;53.178;6.376;2023-02-28T02:44:52;8.48;;;1.95;;
51792;SDS011;37850;53.178;6.376;2023-02-28T02:47:27;8.05;;;1.90;;
51792;SDS011;37850;53.178;6.376;2023-02-28T02:49:56;7.88;;;2.03;;
51792;SDS011;37850;53.178;6.376;2023-02-28T02:52:26;7.88;;;2.10;;
51792;SDS011;37850;53.178;6.376;2023-02-28T02:54:59;10.98;;;2.20;;
51792;SDS011;37850;53.178;6.376;2023-02-28T02:57:32;6.68;;;2.03;;
51792;SDS011;37850;53.178;6.376;2023-02-28T03:00:03;9.55;;;2.28;;
51792;SDS011;37850;53.178;6.376;2023-02-28T03:02:33;9.93;;;2.60;;
51792;SDS011;37850;53.178;6.376;2023-02-28T03:05:03;9.18;;;2.10;;
51792;SDS011;37850;53.178;6.376;2023-02-28T03:07:33;7.47;;;1.88;;
51792;SDS011;37850;53.178;6.376;2023-02-28T03:09:59;8.98;;;2.20;;
51792;SDS011;37850;53.178;6.376;2023-02-28T03:12:31;11.02;;;2.58;;
51792;SDS011;37850;53.178;6.376;2023-02-28T03:15:13;7.20;;;2.05;;
51792;SDS011;37850;53.178;6.376;2023-02-28T03:23:20;8.23;;;2.50;;
51792;SDS011;37850;53.178;6.376;2023-02-28T03:31:32;5.95;;;1.88;;
51792;SDS011;37850;53.178;6.376;2023-02-28T03:34:13;6.70;;;2.47;;
51792;SDS011;37850;53.178;6.376;2023-02-28T03:36:45;11.27;;;2.40;;
51792;SDS011;37850;53.178;6.376;2023-02-28T03:42:19;9.18;;;2.83;;
51792;SDS011;37850;53.178;6.376;2023-02-28T03:47:25;9.43;;;2.67;;
51792;SDS011;37850;53.178;6.376;2023-02-28T03:52:38;9.98;;;2.90;;
51792;SDS011;37850;53.178;6.376;2023-02-28T03:55:12;10.27;;;3.42;;
51792;SDS011;37850;53.178;6.376;2023-02-28T03:57:55;10.52;;;3.20;;
51792;SDS011;37850;53.178;6.376;2023-02-28T04:00:31;9.07;;;3.17;;
51792;SDS011;37850;53.178;6.376;2023-02-28T04:03:03;9.65;;;3.35;;
51792;SDS011;37850;53.178;6.376;2023-02-28T04:05:29;11.07;;;3.58;;
51792;SDS011;37850;53.178;6.376;2023-02-28T04:08:06;10.27;;;2.92;;
51792;SDS011;37850;53.178;6.376;2023-02-28T04:10:32;8.63;;;3.33;;
51792;SDS011;37850;53.178;6.376;2023-02-28T04:12:58;12.30;;;4.65;;
51792;SDS011;37850;53.178;6.376;2023-02-28T04:15:24;10.30;;;5.22;;
51792;SDS011;37850;53.178;6.376;2023-02-28T04:17:52;16.45;;;6.25;;
51792;SDS011;37850;53.178;6.376;2023-02-28T04:20:18;10.30;;;5.93;;
51792;SDS011;37850;53.178;6.376;2023-02-28T04:22:44;12.30;;;7.15;;
51792;SDS011;37850;53.178;6.376;2023-02-28T04:25:09;14.20;;;6.68;;
51792;SDS011;37850;53.178;6.376;2023-02-28T04:27:35;11.95;;;6.90;;
51792;SDS011;37850;53.178;6.376;2023-02-28T04:30:04;12.10;;;6.78;;
51792;SDS011;37850;53.178;6.376;2023-02-28T04:32:30;14.80;;;6.40;;
51792;SDS011;37850;53.178;6.376;2023-02-28T04:34:59;12.80;;;6.47;;
51792;SDS011;37850;53.178;6.376;2023-02-28T04:37:24;13.38;;;5.78;;
51792;SDS011;37850;53.178;6.376;2023-02-28T04:39:53;9.27;;;5.50;;
51792;SDS011;37850;53.178;6.376;2023-02-28T04:42:19;10.35;;;5.15;;
51792;SDS011;37850;53.178;6.376;2023-02-28T04:44:45;11.05;;;5.93;;
51792;SDS011;37850;53.178;6.376;2023-02-28T04:47:12;9.73;;;4.80;;
51792;SDS011;37850;53.178;6.376;2023-02-28T04:49:38;9.05;;;5.35;;
51792;SDS011;37850;53.178;6.376;2023-02-28T04:52:06;9.25;;;4.93;;
51792;SDS011;37850;53.178;6.376;2023-02-28T04:54:32;9.57;;;5.03;;
51792;SDS011;37850;53.178;6.376;2023-02-28T04:56:58;8.68;;;4.97;;
51792;SDS011;37850;53.178;6.376;2023-02-28T04:59:23;9.70;;;4.95;;
51792;SDS011;37850;53.178;6.376;2023-02-28T05:01:49;11.68;;;5.20;;
51792;SDS011;37850;53.178;6.376;2023-02-28T05:04:15;10.25;;;4.90;;
51792;SDS011;37850;53.178;6.376;2023-02-28T05:06:41;11.80;;;5.30;;
51792;SDS011;37850;53.178;6.376;2023-02-28T05:09:07;8.98;;;4.78;;
51792;SDS011;37850;53.178;6.376;2023-02-28T05:11:34;9.68;;;4.72;;
51792;SDS011;37850;53.178;6.376;2023-02-28T05:14:00;12.65;;;4.72;;
51792;SDS011;37850;53.178;6.376;2023-02-28T05:16:35;11.05;;;5.20;;
51792;SDS011;37850;53.178;6.376;2023-02-28T05:19:03;10.10;;;5.07;;
51792;SDS011;37850;53.178;6.376;2023-02-28T05:21:33;11.73;;;4.82;;
51792;SDS011;37850;53.178;6.376;2023-02-28T05:26:28;13.00;;;5.38;;
51792;SDS011;37850;53.178;6.376;2023-02-28T05:28:55;10.55;;;5.50;;
51792;SDS011;37850;53.178;6.376;2023-02-28T05:31:21;11.45;;;5.50;;
51792;SDS011;37850;53.178;6.376;2023-02-28T05:33:48;10.93;;;5.50;;
51792;SDS011;37850;53.178;6.376;2023-02-28T05:36:13;11.38;;;6.10;;
51792;SDS011;37850;53.178;6.376;2023-02-28T05:38:39;14.13;;;6.55;;
51792;SDS011;37850;53.178;6.376;2023-02-28T05:41:08;13.73;;;6.63;;
51792;SDS011;37850;53.178;6.376;2023-02-28T05:43:35;13.15;;;6.55;;
51792;SDS011;37850;53.178;6.376;2023-02-28T05:46:05;13.68;;;6.88;;
51792;SDS011;37850;53.178;6.376;2023-02-28T05:48:33;12.77;;;6.80;;
51792;SDS011;37850;53.178;6.376;2023-02-28T05:50:59;12.95;;;6.70;;
51792;SDS011;37850;53.178;6.376;2023-02-28T05:53:25;12.30;;;6.85;;
51792;SDS011;37850;53.178;6.376;2023-02-28T05:55:51;12.15;;;6.55;;
51792;SDS011;37850;53.178;6.376;2023-02-28T05:58:17;11.77;;;6.72;;
51792;SDS011;37850;53.178;6.376;2023-02-28T06:00:43;14.80;;;7.00;;
51792;SDS011;37850;53.178;6.376;2023-02-28T06:03:09;11.80;;;7.15;;
51792;SDS011;37850;53.178;6.376;2023-02-28T06:05:35;14.02;;;6.75;;
51792;SDS011;37850;53.178;6.376;2023-02-28T06:08:00;14.25;;;7.32;;
51792;SDS011;37850;53.178;6.376;2023-02-28T06:10:32;13.07;;;7.22;;
51792;SDS011;37850;53.178;6.376;2023-02-28T06:13:02;13.15;;;7.28;;
51792;SDS011;37850;53.178;6.376;2023-02-28T06:15:29;12.77;;;6.88;;
51792;SDS011;37850;53.178;6.376;2023-02-28T06:17:55;11.52;;;6.90;;
51792;SDS011;37850;53.178;6.376;2023-02-28T06:20:22;11.70;;;7.03;;
51792;SDS011;37850;53.178;6.376;2023-02-28T06:22:49;13.80;;;7.65;;
51792;SDS011;37850;53.178;6.376;2023-02-28T06:25:19;11.45;;;6.90;;
51792;SDS011;37850;53.178;6.376;2023-02-28T06:27:45;14.35;;;7.43;;
51792;SDS011;37850;53.178;6.376;2023-02-28T06:30:11;15.43;;;8.13;;
51792;SDS011;37850;53.178;6.376;2023-02-28T06:32:37;13.98;;;7.70;;
51792;SDS011;37850;53.178;6.376;2023-02-28T06:35:03;14.05;;;7.85;;
51792;SDS011;37850;53.178;6.376;2023-02-28T06:37:30;16.45;;;9.10;;
51792;SDS011;37850;53.178;6.376;2023-02-28T06:39:59;17.17;;;9.27;;
51792;SDS011;37850;53.178;6.376;2023-02-28T06:42:25;18.08;;;9.52;;
51792;SDS011;37850;53.178;6.376;2023-02-28T06:44:57;16.08;;;9.23;;
51792;SDS011;37850;53.178;6.376;2023-02-28T06:47:23;15.70;;;9.15;;
51792;SDS011;37850;53.178;6.376;2023-02-28T06:49:49;16.45;;;9.32;;
51792;SDS011;37850;53.178;6.376;2023-02-28T06:52:15;16.92;;;9.30;;
51792;SDS011;37850;53.178;6.376;2023-02-28T06:54:41;17.52;;;9.30;;
51792;SDS011;37850;53.178;6.376;2023-02-28T06:57:07;16.55;;;8.90;;
51792;SDS011;37850;53.178;6.376;2023-02-28T06:59:33;16.65;;;9.80;;
51792;SDS011;37850;53.178;6.376;2023-02-28T07:02:00;15.95;;;9.95;;
51792;SDS011;37850;53.178;6.376;2023-02-28T07:04:27;16.35;;;9.25;;
51792;SDS011;37850;53.178;6.376;2023-02-28T07:06:54;16.98;;;9.50;;
51792;SDS011;37850;53.178;6.376;2023-02-28T07:09:21;19.55;;;10.52;;
51792;SDS011;37850;53.178;6.376;2023-02-28T07:11:48;15.68;;;9.60;;
51792;SDS011;37850;53.178;6.376;2023-02-28T07:14:14;18.80;;;10.70;;
51792;SDS011;37850;53.178;6.376;2023-02-28T07:16:39;18.10;;;10.45;;
51792;SDS011;37850;53.178;6.376;2023-02-28T07:19:05;20.00;;;10.35;;
51792;SDS011;37850;53.178;6.376;2023-02-28T07:21:34;18.23;;;10.35;;
51792;SDS011;37850;53.178;6.376;2023-02-28T07:24:00;18.52;;;10.30;;
51792;SDS011;37850;53.178;6.376;2023-02-28T07:26:25;19.70;;;10.13;;
51792;SDS011;37850;53.178;6.376;2023-02-28T07:28:51;16.55;;;9.55;;
51792;SDS011;37850;53.178;6.376;2023-02-28T07:31:17;18.33;;;10.23;;
51792;SDS011;37850;53.178;6.376;2023-02-28T07:33:43;15.52;;;8.95;;
51792;SDS011;37850;53.178;6.376;2023-02-28T07:36:10;16.17;;;9.35;;
51792;SDS011;37850;53.178;6.376;2023-02-28T07:38:43;18.88;;;9.95;;
51792;SDS011;37850;53.178;6.376;2023-02-28T07:41:12;17.48;;;9.57;;
51792;SDS011;37850;53.178;6.376;2023-02-28T07:43:38;16.38;;;9.80;;
51792;SDS011;37850;53.178;6.376;2023-02-28T07:46:04;15.57;;;9.25;;
51792;SDS011;37850;53.178;6.376;2023-02-28T07:48:32;16.20;;;9.32;;
51792;SDS011;37850;53.178;6.376;2023-02-28T07:50:58;18.42;;;10.60;;
51792;SDS011;37850;53.178;6.376;2023-02-28T07:53:25;21.55;;;10.25;;
51792;SDS011;37850;53.178;6.376;2023-02-28T07:55:57;17.38;;;10.05;;
51792;SDS011;37850;53.178;6.376;2023-02-28T07:58:25;17.50;;;9.88;;
51792;SDS011;37850;53.178;6.376;2023-02-28T08:00:53;16.92;;;9.68;;
51792;SDS011;37850;53.178;6.376;2023-02-28T08:03:19;16.10;;;9.65;;
51792;SDS011;37850;53.178;6.376;2023-02-28T08:05:46;16.30;;;9.77;;
51792;SDS011;37850;53.178;6.376;2023-02-28T08:08:13;16.48;;;9.55;;
51792;SDS011;37850;53.178;6.376;2023-02-28T08:10:39;15.27;;;9.38;;
51792;SDS011;37850;53.178;6.376;2023-02-28T08:13:05;15.68;;;9.55;;
51792;SDS011;37850;53.178;6.376;2023-02-28T08:15:31;17.48;;;9.38;;
51792;SDS011;37850;53.178;6.376;2023-02-28T08:17:57;17.98;;;9.43;;
51792;SDS011;37850;53.178;6.376;2023-02-28T08:20:23;19.83;;;9.85;;
51792;SDS011;37850;53.178;6.376;2023-02-28T08:22:50;18.95;;;10.02;;
51792;SDS011;37850;53.178;6.376;2023-02-28T08:25:16;17.45;;;9.35;;
51792;SDS011;37850;53.178;6.376;2023-02-28T08:27:42;16.02;;;9.10;;
51792;SDS011;37850;53.178;6.376;2023-02-28T08:30:09;17.15;;;9.93;;
51792;SDS011;37850;53.178;6.376;2023-02-28T08:32:37;18.73;;;9.43;;
51792;SDS011;37850;53.178;6.376;2023-02-28T08:35:03;16.98;;;8.98;;
51792;SDS011;37850;53.178;6.376;2023-02-28T08:37:29;17.63;;;9.45;;
51792;SDS011;37850;53.178;6.376;2023-02-28T08:39:57;18.05;;;10.18;;
51792;SDS011;37850;53.178;6.376;2023-02-28T08:42:23;16.83;;;9.48;;
51792;SDS011;37850;53.178;6.376;2023-02-28T08:44:49;16.10;;;9.23;;
51792;SDS011;37850;53.178;6.376;2023-02-28T08:47:15;16.90;;;9.35;;
51792;SDS011;37850;53.178;6.376;2023-02-28T08:49:41;18.85;;;9.10;;
51792;SDS011;37850;53.178;6.376;2023-02-28T08:52:07;20.88;;;9.35;;
51792;SDS011;37850;53.178;6.376;2023-02-28T08:54:33;17.40;;;10.05;;
51792;SDS011;37850;53.178;6.376;2023-02-28T08:57:00;13.90;;;8.45;;
51792;SDS011;37850;53.178;6.376;2023-02-28T08:59:27;16.77;;;9.60;;
51792;SDS011;37850;53.178;6.376;2023-02-28T09:01:53;18.58;;;10.00;;
51792;SDS011;37850;53.178;6.376;2023-02-28T09:04:19;21.17;;;9.60;;
51792;SDS011;37850;53.178;6.376;2023-02-28T09:06:44;15.48;;;9.80;;
51792;SDS011;37850;53.178;6.376;2023-02-28T09:09:10;18.13;;;10.07;;
51792;SDS011;37850;53.178;6.376;2023-02-28T09:11:36;16.60;;;9.63;;
51792;SDS011;37850;53.178;6.376;2023-02-28T09:14:02;19.40;;;10.57;;
51792;SDS011;37850;53.178;6.376;2023-02-28T09:16:29;16.30;;;10.13;;
51792;SDS011;37850;53.178;6.376;2023-02-28T09:18:56;18.00;;;10.27;;
51792;SDS011;37850;53.178;6.376;2023-02-28T09:21:22;17.60;;;10.90;;
51792;SDS011;37850;53.178;6.376;2023-02-28T09:23:48;16.05;;;9.82;;
51792;SDS011;37850;53.178;6.376;2023-02-28T09:26:20;15.45;;;9.10;;
51792;SDS011;37850;53.178;6.376;2023-02-28T09:28:50;14.32;;;8.45;;
51792;SDS011;37850;53.178;6.376;2023-02-28T09:31:21;16.48;;;8.73;;
51792;SDS011;37850;53.178;6.376;2023-02-28T09:33:50;18.00;;;8.95;;
51792;SDS011;37850;53.178;6.376;2023-02-28T09:36:18;15.95;;;9.15;;
51792;SDS011;37850;53.178;6.376;2023-02-28T09:38:44;15.90;;;9.23;;
51792;SDS011;37850;53.178;6.376;2023-02-28T09:41:19;16.25;;;8.90;;
51792;SDS011;37850;53.178;6.376;2023-02-28T09:43:48;16.65;;;9.18;;
51792;SDS011;37850;53.178;6.376;2023-02-28T09:48:46;16.05;;;8.57;;
51792;SDS011;37850;53.178;6.376;2023-02-28T09:51:24;15.88;;;9.02;;
51792;SDS011;37850;53.178;6.376;2023-02-28T09:53:52;17.17;;;9.18;;
51792;SDS011;37850;53.178;6.376;2023-02-28T09:56:27;19.70;;;9.05;;
51792;SDS011;37850;53.178;6.376;2023-02-28T10:02:10;16.87;;;9.33;;
51792;SDS011;37850;53.178;6.376;2023-02-28T10:05:00;17.08;;;9.35;;
51792;SDS011;37850;53.178;6.376;2023-02-28T10:10:04;17.08;;;9.63;;
51792;SDS011;37850;53.178;6.376;2023-02-28T10:12:40;17.00;;;9.60;;
51792;SDS011;37850;53.178;6.376;2023-02-28T10:15:14;15.55;;;8.80;;
51792;SDS011;37850;53.178;6.376;2023-02-28T10:17:42;20.75;;;9.25;;
51792;SDS011;37850;53.178;6.376;2023-02-28T10:20:13;14.82;;;8.90;;
51792;SDS011;37850;53.178;6.376;2023-02-28T10:25:53;16.65;;;8.60;;
51792;SDS011;37850;53.178;6.376;2023-02-28T10:28:23;13.93;;;8.10;;
51792;SDS011;37850;53.178;6.376;2023-02-28T10:30:51;14.70;;;8.38;;
51792;SDS011;37850;53.178;6.376;2023-02-28T10:35:49;26.10;;;9.53;;
51792;SDS011;37850;53.178;6.376;2023-02-28T10:38:17;13.25;;;7.35;;
51792;SDS011;37850;53.178;6.376;2023-02-28T10:40:46;13.65;;;7.28;;
51792;SDS011;37850;53.178;6.376;2023-02-28T10:45:38;14.05;;;6.72;;
51792;SDS011;37850;53.178;6.376;2023-02-28T10:48:05;13.57;;;6.10;;
51792;SDS011;37850;53.178;6.376;2023-02-28T10:50:52;10.93;;;5.90;;
51792;SDS011;37850;53.178;6.376;2023-02-28T11:03:57;9.55;;;5.35;;
51792;SDS011;37850;53.178;6.376;2023-02-28T11:06:29;9.82;;;4.80;;
51792;SDS011;37850;53.178;6.376;2023-02-28T11:08:58;9.45;;;5.45;;
51792;SDS011;37850;53.178;6.376;2023-02-28T11:11:43;12.18;;;5.40;;
51792;SDS011;37850;53.178;6.376;2023-02-28T11:14:18;11.50;;;5.13;;
51792;SDS011;37850;53.178;6.376;2023-02-28T11:16:58;11.23;;;5.00;;
51792;SDS011;37850;53.178;6.376;2023-02-28T11:19:38;10.05;;;4.80;;
51792;SDS011;37850;53.178;6.376;2023-02-28T11:22:09;9.60;;;4.57;;
51792;SDS011;37850;53.178;6.376;2023-02-28T11:24:43;13.48;;;4.68;;
51792;SDS011;37850;53.178;6.376;2023-02-28T11:29:56;9.40;;;4.53;;
51792;SDS011;37850;53.178;6.376;2023-02-28T11:32:30;8.52;;;3.85;;
51792;SDS011;37850;53.178;6.376;2023-02-28T11:35:01;7.78;;;4.07;;
51792;SDS011;37850;53.178;6.376;2023-02-28T11:37:37;9.63;;;4.03;;
51792;SDS011;37850;53.178;6.376;2023-02-28T11:40:17;9.98;;;4.25;;
51792;SDS011;37850;53.178;6.376;2023-02-28T11:42:54;9.23;;;4.63;;
51792;SDS011;37850;53.178;6.376;2023-02-28T11:49:11;8.57;;;4.15;;
51792;SDS011;37850;53.178;6.376;2023-02-28T11:51:30;9.63;;;4.60;;
51792;SDS011;37850;53.178;6.376;2023-02-28T12:06:05;9.02;;;4.32;;
51792;SDS011;37850;53.178;6.376;2023-02-28T12:09:03;8.80;;;4.00;;
51792;SDS011;37850;53.178;6.376;2023-02-28T12:11:51;10.07;;;4.25;;
51792;SDS011;37850;53.178;6.376;2023-02-28T12:17:20;7.68;;;3.53;;
51792;SDS011;37850;53.178;6.376;2023-02-28T12:20:02;8.15;;;3.60;;
51792;SDS011;37850;53.178;6.376;2023-02-28T12:22:46;7.53;;;3.45;;
51792;SDS011;37850;53.178;6.376;2023-02-28T12:25:39;8.07;;;3.40;;
51792;SDS011;37850;53.178;6.376;2023-02-28T12:28:17;8.23;;;3.58;;
51792;SDS011;37850;53.178;6.376;2023-02-28T12:31:00;8.57;;;3.30;;
51792;SDS011;37850;53.178;6.376;2023-02-28T12:33:52;9.57;;;3.63;;
51792;SDS011;37850;53.178;6.376;2023-02-28T12:36:24;8.10;;;3.50;;
51792;SDS011;37850;53.178;6.376;2023-02-28T12:38:53;10.25;;;3.78;;
51792;SDS011;37850;53.178;6.376;2023-02-28T12:41:27;12.32;;;3.80;;
51792;SDS011;37850;53.178;6.376;2023-02-28T12:44:06;8.68;;;3.33;;
51792;SDS011;37850;53.178;6.376;2023-02-28T12:46:38;7.97;;;3.53;;
51792;SDS011;37850;53.178;6.376;2023-02-28T12:49:10;10.07;;;3.65;;
51792;SDS011;37850;53.178;6.376;2023-02-28T12:51:47;8.10;;;3.35;;
51792;SDS011;37850;53.178;6.376;2023-02-28T12:54:25;8.40;;;3.42;;
51792;SDS011;37850;53.178;6.376;2023-02-28T12:59:34;8.57;;;4.00;;
51792;SDS011;37850;53.178;6.376;2023-02-28T13:02:22;8.25;;;3.63;;
51792;SDS011;37850;53.178;6.376;2023-02-28T13:05:06;8.10;;;3.47;;
51792;SDS011;37850;53.178;6.376;2023-02-28T13:10:46;9.35;;;3.38;;
51792;SDS011;37850;53.178;6.376;2023-02-28T13:13:20;6.45;;;3.20;;
51792;SDS011;37850;53.178;6.376;2023-02-28T13:21:07;9.93;;;3.83;;
51792;SDS011;37850;53.178;6.376;2023-02-28T13:29:27;8.10;;;3.47;;
51792;SDS011;37850;53.178;6.376;2023-02-28T13:34:36;7.07;;;3.35;;
51792;SDS011;37850;53.178;6.376;2023-02-28T13:47:36;11.13;;;4.32;;
51792;SDS011;37850;53.178;6.376;2023-02-28T13:53:13;7.00;;;3.35;;
51792;SDS011;37850;53.178;6.376;2023-02-28T13:56:10;7.70;;;3.95;;
51792;SDS011;37850;53.178;6.376;2023-02-28T13:59:00;10.38;;;3.90;;
51792;SDS011;37850;53.178;6.376;2023-02-28T14:06:51;8.45;;;4.00;;
51792;SDS011;37850;53.178;6.376;2023-02-28T14:15:47;8.57;;;4.10;;
51792;SDS011;37850;53.178;6.376;2023-02-28T14:18:13;9.70;;;4.60;;
51792;SDS011;37850;53.178;6.376;2023-02-28T14:20:47;13.30;;;4.57;;
51792;SDS011;37850;53.178;6.376;2023-02-28T14:34:54;8.88;;;4.68;;
51792;SDS011;37850;53.178;6.376;2023-02-28T14:37:32;12.65;;;5.22;;
51792;SDS011;37850;53.178;6.376;2023-02-28T14:40:04;10.80;;;5.28;;
51792;SDS011;37850;53.178;6.376;2023-02-28T14:42:39;8.68;;;4.38;;
51792;SDS011;37850;53.178;6.376;2023-02-28T14:45:20;8.88;;;4.38;;
51792;SDS011;37850;53.178;6.376;2023-02-28T14:47:48;10.98;;;5.10;;
51792;SDS011;37850;53.178;6.376;2023-02-28T14:50:23;8.82;;;4.70;;
51792;SDS011;37850;53.178;6.376;2023-02-28T14:52:53;11.45;;;5.50;;
51792;SDS011;37850;53.178;6.376;2023-02-28T14:55:23;11.57;;;5.45;;
51792;SDS011;37850;53.178;6.376;2023-02-28T14:58:18;10.80;;;5.43;;
51792;SDS011;37850;53.178;6.376;2023-02-28T15:00:50;10.77;;;4.72;;
51792;SDS011;37850;53.178;6.376;2023-02-28T15:03:19;15.07;;;5.93;;
51792;SDS011;37850;53.178;6.376;2023-02-28T15:08:23;8.57;;;4.72;;
51792;SDS011;37850;53.178;6.376;2023-02-28T15:10:57;9.05;;;4.97;;
51792;SDS011;37850;53.178;6.376;2023-02-28T15:13:23;9.52;;;4.97;;
51792;SDS011;37850;53.178;6.376;2023-02-28T15:16:01;10.63;;;5.05;;
51792;SDS011;37850;53.178;6.376;2023-02-28T15:18:44;11.02;;;4.55;;
51792;SDS011;37850;53.178;6.376;2023-02-28T15:23:55;11.10;;;5.18;;
51792;SDS011;37850;53.178;6.376;2023-02-28T15:26:24;9.60;;;5.10;;
51792;SDS011;37850;53.178;6.376;2023-02-28T15:29:04;8.18;;;5.20;;
51792;SDS011;37850;53.178;6.376;2023-02-28T15:31:33;14.27;;;5.70;;
51792;SDS011;37850;53.178;6.376;2023-02-28T15:34:05;8.73;;;4.75;;
51792;SDS011;37850;53.178;6.376;2023-02-28T15:36:32;9.77;;;5.35;;
51792;SDS011;37850;53.178;6.376;2023-02-28T15:39:02;11.45;;;5.40;;
51792;SDS011;37850;53.178;6.376;2023-02-28T15:41:43;12.30;;;6.03;;
51792;SDS011;37850;53.178;6.376;2023-02-28T15:44:28;12.90;;;6.28;;
51792;SDS011;37850;53.178;6.376;2023-02-28T15:46:59;10.20;;;6.03;;
51792;SDS011;37850;53.178;6.376;2023-02-28T15:52:00;11.33;;;5.93;;
51792;SDS011;37850;53.178;6.376;2023-02-28T15:54:28;11.40;;;6.18;;
51792;SDS011;37850;53.178;6.376;2023-02-28T15:56:57;15.90;;;7.10;;
51792;SDS011;37850;53.178;6.376;2023-02-28T15:59:28;11.68;;;6.47;;
51792;SDS011;37850;53.178;6.376;2023-02-28T16:07:32;11.52;;;6.20;;
51792;SDS011;37850;53.178;6.376;2023-02-28T16:09:59;14.02;;;6.82;;
51792;SDS011;37850;53.178;6.376;2023-02-28T16:12:26;11.40;;;6.95;;
51792;SDS011;37850;53.178;6.376;2023-02-28T16:14:55;11.43;;;6.40;;
51792;SDS011;37850;53.178;6.376;2023-02-28T16:17:24;13.73;;;7.18;;
51792;SDS011;37850;53.178;6.376;2023-02-28T16:19:52;12.70;;;6.78;;
51792;SDS011;37850;53.178;6.376;2023-02-28T16:22:19;13.05;;;6.75;;
51792;SDS011;37850;53.178;6.376;2023-02-28T16:24:46;13.07;;;6.93;;
51792;SDS011;37850;53.178;6.376;2023-02-28T16:27:19;12.75;;;6.75;;
51792;SDS011;37850;53.178;6.376;2023-02-28T16:29:53;13.30;;;6.63;;
51792;SDS011;37850;53.178;6.376;2023-02-28T16:32:19;12.10;;;6.70;;
51792;SDS011;37850;53.178;6.376;2023-02-28T16:34:45;12.57;;;6.30;;
51792;SDS011;37850;53.178;6.376;2023-02-28T16:37:14;12.73;;;6.80;;
51792;SDS011;37850;53.178;6.376;2023-02-28T16:39:43;13.05;;;6.40;;
51792;SDS011;37850;53.178;6.376;2023-02-28T16:42:21;10.43;;;6.53;;
51792;SDS011;37850;53.178;6.376;2023-02-28T16:44:52;11.18;;;5.82;;
51792;SDS011;37850;53.178;6.376;2023-02-28T16:47:19;10.75;;;6.05;;
51792;SDS011;37850;53.178;6.376;2023-02-28T16:49:45;11.98;;;6.38;;
51792;SDS011;37850;53.178;6.376;2023-02-28T16:52:12;12.00;;;5.70;;
51792;SDS011;37850;53.178;6.376;2023-02-28T16:54:39;13.00;;;6.63;;
51792;SDS011;37850;53.178;6.376;2023-02-28T16:57:06;15.63;;;6.97;;
51792;SDS011;37850;53.178;6.376;2023-02-28T16:59:41;10.95;;;6.05;;
51792;SDS011;37850;53.178;6.376;2023-02-28T17:02:10;9.65;;;6.32;;
51792;SDS011;37850;53.178;6.376;2023-02-28T17:07:04;11.45;;;5.35;;
51792;SDS011;37850;53.178;6.376;2023-02-28T17:09:30;10.60;;;5.45;;
51792;SDS011;37850;53.178;6.376;2023-02-28T17:11:56;10.77;;;5.70;;
51792;SDS011;37850;53.178;6.376;2023-02-28T17:14:21;11.38;;;5.65;;
51792;SDS011;37850;53.178;6.376;2023-02-28T17:16:48;13.05;;;5.93;;
51792;SDS011;37850;53.178;6.376;2023-02-28T17:19:14;12.07;;;5.72;;
51792;SDS011;37850;53.178;6.376;2023-02-28T17:21:42;9.98;;;5.90;;
51792;SDS011;37850;53.178;6.376;2023-02-28T17:24:08;10.07;;;5.57;;
51792;SDS011;37850;53.178;6.376;2023-02-28T17:26:37;8.77;;;5.78;;
51792;SDS011;37850;53.178;6.376;2023-02-28T17:29:05;12.68;;;6.53;;
51792;SDS011;37850;53.178;6.376;2023-02-28T17:31:44;11.57;;;6.90;;
51792;SDS011;37850;53.178;6.376;2023-02-28T17:34:10;13.23;;;6.50;;
51792;SDS011;37850;53.178;6.376;2023-02-28T17:36:36;10.93;;;6.65;;